Etusivu
METAR-TAF:

METAR-TAF

Lentoasemat :

Gibraltar, Gibraltar

Gibraltarin lentoasema

Leveyspiiri: 36-09N, Pituuspiiri: 005-21W, korkeus merenpinnasta: 5 m

Tämänhetkinen sää

Tämä raportti tehtiin 42 minuuttia sitten, kello 10.50 UTC
Tuuli 14 kn idästä
Lämpötila 18°C
Kosteus 77%
Ilmanpaine 1020 hPa
Näkyvyys 10 km tai enemmän
Muutamia pilviä 1400 ft:n korkeudessa

METAR: LXGB 191050Z 09014KT 9999 FEW014 18/14 Q1020 TEMPO 10016G26KT

Aika: 13:32 (11:32 UTC)

Sääennuste

Tämä raportti tehtiin 2 tuntia ja 57 minuuttia sitten, kello 08.35 UTC
Ennuste voimassa 19. päivästä klo 08 UTC - 19. päivään klo 15 UTC
Tuuli 15 kn idästä
Näkyvyys 10 km tai enemmän
Muutamia pilviä 1200 ft:n korkeudessa
Todennäköisyys 40% :
Ajoittain
19. päivästä klo 08 UTC - 19. päivään klo 15 UTC
Tuuli 20 kn idästä puuskistuen 30 kn:hen
Hajanaisia pilviä 1400 ft:n korkeudessa

TAF: LXGB 190835Z 1908/1915 09015KT 9999 FEW012 PROB40 TEMPO 1908/1915 10020G30KT SCT014

Säähavainnot ja -ennusteet yli 4000 lentoasemalta (METAR- ja TAF-raportit).

Käytössä olevat sääasemat on merkitty karttaan keltaisilla ja punaisilla pisteillä.

Aseta hiiri pisteen päälle nähdäksesi sääaseman nimen.

Klikkaa sitten nähdäksesi säähavainnot ja -ennusteet.

Kartan vaihtaminen: klikkaa mustalla rastilla varustettuja vihreitä pisteitä, niin voit zoomata sisään; viivalla varustettua vihreää pistettä, niin voit zoomata ulos tai vihreitä nuolia, niin pääset viereisille kartoille.


METAR-TAF: